sensor_id;sensor_type;location;lat;lon;timestamp;pressure;altitude;pressure_sealevel;temperature;humidity
24440;BME280;12618;54.386;18.394;2022-08-06T10:56:36;100378.63;;;24.13;46.38
24440;BME280;12618;54.386;18.394;2022-08-06T10:59:08;100385.37;;;24.13;44.85
24440;BME280;12618;54.386;18.394;2022-08-06T11:04:50;100386.85;;;24.30;44.26
24440;BME280;12618;54.386;18.394;2022-08-06T11:10:31;100387.78;;;24.16;39.44
24440;BME280;12618;54.386;18.394;2022-08-06T11:15:43;100385.52;;;24.02;42.85
24440;BME280;12618;54.386;18.394;2022-08-06T11:18:15;100380.05;;;24.17;42.20
24440;BME280;12618;54.386;18.394;2022-08-06T11:20:47;100383.81;;;24.39;40.84
24440;BME280;12618;54.386;18.394;2022-08-06T11:23:21;100369.08;;;24.71;42.57
24440;BME280;12618;54.386;18.394;2022-08-06T11:25:59;100377.52;;;25.22;39.41
24440;BME280;12618;54.386;18.394;2022-08-06T11:31:07;100376.09;;;25.73;37.22
24440;BME280;12618;54.386;18.394;2022-08-06T11:36:26;100362.45;;;26.00;36.15
24440;BME280;12618;54.386;18.394;2022-08-06T11:38:58;100371.62;;;26.03;38.37
24440;BME280;12618;54.386;18.394;2022-08-06T11:41:31;100371.59;;;25.82;38.12
24440;BME280;12618;54.386;18.394;2022-08-06T11:44:05;100370.81;;;25.89;38.04
24440;BME280;12618;54.386;18.394;2022-08-06T11:46:38;100368.34;;;25.78;38.71
24440;BME280;12618;54.386;18.394;2022-08-06T11:49:18;100367.52;;;25.64;37.70
24440;BME280;12618;54.386;18.394;2022-08-06T11:51:57;100376.13;;;25.63;36.11
24440;BME280;12618;54.386;18.394;2022-08-06T12:02:45;100356.07;;;23.75;37.80
24440;BME280;12618;54.386;18.394;2022-08-06T12:08:18;100377.62;;;24.33;38.17
24440;BME280;12618;54.386;18.394;2022-08-06T12:11:26;100367.19;;;24.34;37.68
24440;BME280;12618;54.386;18.394;2022-08-06T12:14:04;100373.19;;;23.70;36.34
24440;BME280;12618;54.386;18.394;2022-08-06T12:16:37;100377.23;;;23.20;37.32
24440;BME280;12618;54.386;18.394;2022-08-06T12:19:14;100374.03;;;23.51;37.75
24440;BME280;12618;54.386;18.394;2022-08-06T12:21:50;100375.95;;;23.93;37.54
24440;BME280;12618;54.386;18.394;2022-08-06T12:24:25;100377.86;;;24.07;36.61
24440;BME280;12618;54.386;18.394;2022-08-06T12:26:56;100365.02;;;24.24;36.68
24440;BME280;12618;54.386;18.394;2022-08-06T12:29:32;100375.56;;;24.31;36.81
24440;BME280;12618;54.386;18.394;2022-08-06T12:32:20;100371.17;;;24.40;36.47
24440;BME280;12618;54.386;18.394;2022-08-06T12:34:54;100367.38;;;24.70;37.00
24440;BME280;12618;54.386;18.394;2022-08-06T12:37:40;100370.53;;;24.55;37.16
24440;BME280;12618;54.386;18.394;2022-08-06T12:40:14;100365.95;;;24.42;38.07
24440;BME280;12618;54.386;18.394;2022-08-06T12:45:36;100379.80;;;24.43;37.05
24440;BME280;12618;54.386;18.394;2022-08-06T12:48:09;100377.72;;;23.79;37.89
24440;BME280;12618;54.386;18.394;2022-08-06T12:50:43;100371.42;;;23.84;38.15
24440;BME280;12618;54.386;18.394;2022-08-06T12:53:17;100376.64;;;24.15;38.41
24440;BME280;12618;54.386;18.394;2022-08-06T12:55:51;100376.18;;;24.48;37.45
24440;BME280;12618;54.386;18.394;2022-08-06T12:58:40;100374.62;;;24.46;37.22
24440;BME280;12618;54.386;18.394;2022-08-06T13:00:58;100385.39;;;23.93;36.58
24440;BME280;12618;54.386;18.394;2022-08-06T13:03:31;100380.77;;;23.36;37.56
24440;BME280;12618;54.386;18.394;2022-08-06T13:06:05;100391.73;;;23.19;37.66
24440;BME280;12618;54.386;18.394;2022-08-06T13:08:37;100390.95;;;23.33;38.09
24440;BME280;12618;54.386;18.394;2022-08-06T13:11:08;100384.53;;;23.14;38.37
24440;BME280;12618;54.386;18.394;2022-08-06T13:13:45;100380.70;;;23.07;38.04
24440;BME280;12618;54.386;18.394;2022-08-06T13:16:15;100377.41;;;22.58;38.73
24440;BME280;12618;54.386;18.394;2022-08-06T13:19:05;100385.83;;;22.23;38.83
24440;BME280;12618;54.386;18.394;2022-08-06T13:21:37;100376.56;;;21.90;39.52
24440;BME280;12618;54.386;18.394;2022-08-06T13:24:08;100380.81;;;22.24;39.93
24440;BME280;12618;54.386;18.394;2022-08-06T13:26:53;100397.42;;;22.44;39.13
24440;BME280;12618;54.386;18.394;2022-08-06T13:29:26;100385.30;;;22.50;39.07
24440;BME280;12618;54.386;18.394;2022-08-06T13:32:09;100381.52;;;22.47;38.27
24440;BME280;12618;54.386;18.394;2022-08-06T13:34:50;100385.94;;;22.42;38.26
24440;BME280;12618;54.386;18.394;2022-08-06T13:40:34;100388.68;;;22.37;38.88
24440;BME280;12618;54.386;18.394;2022-08-06T13:42:55;100387.20;;;22.53;38.56
24440;BME280;12618;54.386;18.394;2022-08-06T13:45:28;100374.66;;;22.48;37.46
24440;BME280;12618;54.386;18.394;2022-08-06T13:48:11;100398.04;;;22.27;38.62
24440;BME280;12618;54.386;18.394;2022-08-06T13:50:43;100386.50;;;22.10;38.68
24440;BME280;12618;54.386;18.394;2022-08-06T13:53:15;100394.85;;;22.07;38.49
24440;BME280;12618;54.386;18.394;2022-08-06T13:55:46;100397.98;;;22.12;38.55
24440;BME280;12618;54.386;18.394;2022-08-06T13:58:17;100395.71;;;22.28;38.80
24440;BME280;12618;54.386;18.394;2022-08-06T14:00:51;100412.84;;;22.42;38.63
24440;BME280;12618;54.386;18.394;2022-08-06T14:03:21;100396.70;;;22.42;38.62
24440;BME280;12618;54.386;18.394;2022-08-06T14:05:53;100399.67;;;22.39;38.43
24440;BME280;12618;54.386;18.394;2022-08-06T14:08:24;100400.00;;;22.25;38.09
24440;BME280;12618;54.386;18.394;2022-08-06T14:10:55;100399.87;;;22.00;38.48
24440;BME280;12618;54.386;18.394;2022-08-06T14:13:26;100402.69;;;21.99;38.94
24440;BME280;12618;54.386;18.394;2022-08-06T14:15:57;100403.30;;;22.02;39.07
24440;BME280;12618;54.386;18.394;2022-08-06T14:18:30;100400.86;;;21.99;38.49
24440;BME280;12618;54.386;18.394;2022-08-06T14:21:01;100392.67;;;22.01;39.09
24440;BME280;12618;54.386;18.394;2022-08-06T14:23:31;100398.55;;;22.21;38.74
24440;BME280;12618;54.386;18.394;2022-08-06T14:26:02;100400.90;;;22.20;37.93
24440;BME280;12618;54.386;18.394;2022-08-06T14:28:35;100409.77;;;22.26;38.11
24440;BME280;12618;54.386;18.394;2022-08-06T14:31:06;100402.87;;;22.33;38.75
24440;BME280;12618;54.386;18.394;2022-08-06T14:33:37;100398.52;;;22.47;38.62
24440;BME280;12618;54.386;18.394;2022-08-06T14:36:08;100410.52;;;22.43;38.50
24440;BME280;12618;54.386;18.394;2022-08-06T14:38:39;100410.00;;;22.08;38.22
24440;BME280;12618;54.386;18.394;2022-08-06T14:41:11;100405.27;;;21.95;38.68
24440;BME280;12618;54.386;18.394;2022-08-06T14:44:00;100414.19;;;21.90;38.58
24440;BME280;12618;54.386;18.394;2022-08-06T14:46:50;100409.59;;;21.80;38.96
24440;BME280;12618;54.386;18.394;2022-08-06T14:49:21;100393.99;;;21.74;38.98
24440;BME280;12618;54.386;18.394;2022-08-06T14:51:52;100405.76;;;21.89;38.87
24440;BME280;12618;54.386;18.394;2022-08-06T14:54:23;100408.23;;;21.86;37.80
24440;BME280;12618;54.386;18.394;2022-08-06T14:56:54;100412.39;;;21.85;38.07
24440;BME280;12618;54.386;18.394;2022-08-06T14:59:25;100407.47;;;21.63;37.62
24440;BME280;12618;54.386;18.394;2022-08-06T15:01:56;100419.67;;;21.56;38.24
24440;BME280;12618;54.386;18.394;2022-08-06T15:04:27;100426.27;;;21.58;38.28
24440;BME280;12618;54.386;18.394;2022-08-06T15:06:58;100424.59;;;21.51;38.43
24440;BME280;12618;54.386;18.394;2022-08-06T15:09:29;100444.58;;;21.58;38.60
24440;BME280;12618;54.386;18.394;2022-08-06T15:12:02;100419.97;;;21.42;38.54
24440;BME280;12618;54.386;18.394;2022-08-06T15:14:33;100422.55;;;21.21;39.05
24440;BME280;12618;54.386;18.394;2022-08-06T15:17:05;100424.13;;;21.24;39.42
24440;BME280;12618;54.386;18.394;2022-08-06T15:19:37;100428.15;;;21.40;39.59
24440;BME280;12618;54.386;18.394;2022-08-06T15:22:07;100429.47;;;21.52;39.36
24440;BME280;12618;54.386;18.394;2022-08-06T15:24:38;100439.18;;;21.69;39.52
24440;BME280;12618;54.386;18.394;2022-08-06T15:27:09;100439.42;;;21.66;39.48
24440;BME280;12618;54.386;18.394;2022-08-06T15:29:40;100430.42;;;21.56;39.60
24440;BME280;12618;54.386;18.394;2022-08-06T15:32:11;100428.49;;;21.47;39.70
24440;BME280;12618;54.386;18.394;2022-08-06T15:34:44;100448.27;;;21.46;39.83
24440;BME280;12618;54.386;18.394;2022-08-06T15:37:16;100436.79;;;21.44;40.08
24440;BME280;12618;54.386;18.394;2022-08-06T15:39:50;100429.00;;;21.41;40.13
24440;BME280;12618;54.386;18.394;2022-08-06T15:42:22;100441.47;;;21.31;39.77
24440;BME280;12618;54.386;18.394;2022-08-06T15:44:53;100438.44;;;21.19;39.93
24440;BME280;12618;54.386;18.394;2022-08-06T15:47:24;100447.41;;;21.01;39.15
24440;BME280;12618;54.386;18.394;2022-08-06T15:49:57;100456.45;;;20.83;39.27
24440;BME280;12618;54.386;18.394;2022-08-06T15:52:28;100458.74;;;20.71;38.55
24440;BME280;12618;54.386;18.394;2022-08-06T15:55:01;100454.45;;;20.52;38.71
24440;BME280;12618;54.386;18.394;2022-08-06T15:57:32;100469.94;;;20.54;39.19
24440;BME280;12618;54.386;18.394;2022-08-06T16:00:06;100461.75;;;20.55;39.35
24440;BME280;12618;54.386;18.394;2022-08-06T16:02:37;100464.31;;;20.57;39.55
24440;BME280;12618;54.386;18.394;2022-08-06T16:05:08;100447.86;;;20.50;39.52
24440;BME280;12618;54.386;18.394;2022-08-06T16:07:39;100453.70;;;20.50;39.69
24440;BME280;12618;54.386;18.394;2022-08-06T16:10:18;100435.54;;;20.42;39.95
24440;BME280;12618;54.386;18.394;2022-08-06T16:12:55;100461.63;;;20.57;40.30
24440;BME280;12618;54.386;18.394;2022-08-06T16:15:26;100448.73;;;20.62;39.95
24440;BME280;12618;54.386;18.394;2022-08-06T16:17:57;100441.01;;;20.46;39.64
24440;BME280;12618;54.386;18.394;2022-08-06T16:20:28;100469.77;;;20.44;39.92
24440;BME280;12618;54.386;18.394;2022-08-06T16:22:59;100469.22;;;20.33;40.29
24440;BME280;12618;54.386;18.394;2022-08-06T16:25:30;100452.38;;;20.26;40.21
24440;BME280;12618;54.386;18.394;2022-08-06T16:28:03;100454.80;;;20.23;40.51
24440;BME280;12618;54.386;18.394;2022-08-06T16:30:36;100457.55;;;20.05;40.69
24440;BME280;12618;54.386;18.394;2022-08-06T16:33:08;100444.63;;;19.99;40.67
24440;BME280;12618;54.386;18.394;2022-08-06T16:35:40;100444.63;;;19.99;40.67
24440;BME280;12618;54.386;18.394;2022-08-06T16:38:12;100460.45;;;20.02;40.74
24440;BME280;12618;54.386;18.394;2022-08-06T16:40:44;100435.94;;;19.66;41.32
24440;BME280;12618;54.386;18.394;2022-08-06T16:43:18;100435.94;;;19.66;41.32
24440;BME280;12618;54.386;18.394;2022-08-06T16:45:50;100486.91;;;19.83;41.42
24440;BME280;12618;54.386;18.394;2022-08-06T16:48:21;100467.83;;;19.87;41.75
24440;BME280;12618;54.386;18.394;2022-08-06T16:50:52;100474.05;;;19.88;41.86
24440;BME280;12618;54.386;18.394;2022-08-06T16:53:23;100469.66;;;19.87;42.13
24440;BME280;12618;54.386;18.394;2022-08-06T16:55:54;100459.31;;;19.70;42.37
24440;BME280;12618;54.386;18.394;2022-08-06T16:58:27;100472.58;;;19.66;42.04
24440;BME280;12618;54.386;18.394;2022-08-06T17:01:00;100474.13;;;19.62;42.02
24440;BME280;12618;54.386;18.394;2022-08-06T17:03:33;100476.44;;;19.61;42.19
24440;BME280;12618;54.386;18.394;2022-08-06T17:06:06;100473.39;;;19.60;42.08
24440;BME280;12618;54.386;18.394;2022-08-06T17:08:38;100484.19;;;19.53;42.29
24440;BME280;12618;54.386;18.394;2022-08-06T17:11:09;100474.70;;;19.42;42.72
24440;BME280;12618;54.386;18.394;2022-08-06T17:13:43;100474.70;;;19.42;42.72
24440;BME280;12618;54.386;18.394;2022-08-06T17:16:15;100481.72;;;19.50;43.08
24440;BME280;12618;54.386;18.394;2022-08-06T17:18:48;100491.27;;;19.47;42.86
24440;BME280;12618;54.386;18.394;2022-08-06T17:21:19;100479.62;;;19.48;43.01
24440;BME280;12618;54.386;18.394;2022-08-06T17:23:51;100453.71;;;19.36;42.76
24440;BME280;12618;54.386;18.394;2022-08-06T17:26:23;100481.63;;;19.45;43.03
24440;BME280;12618;54.386;18.394;2022-08-06T17:28:55;100481.63;;;19.45;43.03
24440;BME280;12618;54.386;18.394;2022-08-06T17:31:26;100481.72;;;19.50;43.23
24440;BME280;12618;54.386;18.394;2022-08-06T17:34:00;100485.22;;;19.63;43.41
24440;BME280;12618;54.386;18.394;2022-08-06T17:36:33;100492.84;;;19.75;43.53
24440;BME280;12618;54.386;18.394;2022-08-06T17:39:05;100492.20;;;19.72;43.41
24440;BME280;12618;54.386;18.394;2022-08-06T17:41:37;100497.02;;;19.67;43.50
24440;BME280;12618;54.386;18.394;2022-08-06T17:44:08;100497.33;;;19.56;43.46
24440;BME280;12618;54.386;18.394;2022-08-06T17:46:40;100476.64;;;18.97;43.94
24440;BME280;12618;54.386;18.394;2022-08-06T17:49:13;100476.64;;;18.97;43.94
24440;BME280;12618;54.386;18.394;2022-08-06T17:51:46;100500.75;;;18.89;44.34
24440;BME280;12618;54.386;18.394;2022-08-06T17:54:19;100498.61;;;18.69;44.49
24440;BME280;12618;54.386;18.394;2022-08-06T17:56:53;100502.78;;;18.61;44.67
24440;BME280;12618;54.386;18.394;2022-08-06T17:59:28;100505.39;;;18.48;44.99
24440;BME280;12618;54.386;18.394;2022-08-06T18:02:02;100504.88;;;18.36;45.06
24440;BME280;12618;54.386;18.394;2022-08-06T18:04:36;100512.38;;;18.24;45.90
24440;BME280;12618;54.386;18.394;2022-08-06T18:07:09;100517.43;;;18.08;46.22
24440;BME280;12618;54.386;18.394;2022-08-06T18:09:44;100511.75;;;17.93;47.26
24440;BME280;12618;54.386;18.394;2022-08-06T18:12:34;100514.64;;;17.83;46.99
24440;BME280;12618;54.386;18.394;2022-08-06T18:15:08;100523.83;;;17.72;46.94
24440;BME280;12618;54.386;18.394;2022-08-06T18:17:40;100512.56;;;17.60;47.49
24440;BME280;12618;54.386;18.394;2022-08-06T18:20:12;100516.59;;;17.53;47.74
24440;BME280;12618;54.386;18.394;2022-08-06T18:22:46;100517.34;;;17.47;48.20
24440;BME280;12618;54.386;18.394;2022-08-06T18:25:20;100519.66;;;17.39;48.36
24440;BME280;12618;54.386;18.394;2022-08-06T18:27:53;100514.91;;;17.30;48.53
24440;BME280;12618;54.386;18.394;2022-08-06T18:30:26;100525.55;;;17.23;49.34
24440;BME280;12618;54.386;18.394;2022-08-06T18:32:57;100525.75;;;17.13;49.22
24440;BME280;12618;54.386;18.394;2022-08-06T18:35:30;100526.53;;;17.08;49.39
24440;BME280;12618;54.386;18.394;2022-08-06T18:38:06;100530.32;;;17.04;49.60
24440;BME280;12618;54.386;18.394;2022-08-06T18:40:37;100536.44;;;16.99;49.76
24440;BME280;12618;54.386;18.394;2022-08-06T18:43:09;100539.28;;;16.96;49.70
24440;BME280;12618;54.386;18.394;2022-08-06T18:45:42;100532.62;;;16.89;50.01
24440;BME280;12618;54.386;18.394;2022-08-06T18:48:18;100538.42;;;16.88;50.28
24440;BME280;12618;54.386;18.394;2022-08-06T18:50:48;100534.86;;;16.81;52.76
24440;BME280;12618;54.386;18.394;2022-08-06T18:53:18;100533.44;;;16.75;50.45
24440;BME280;12618;54.386;18.394;2022-08-06T18:55:49;100536.75;;;16.71;50.74
24440;BME280;12618;54.386;18.394;2022-08-06T18:58:20;100538.38;;;16.67;51.15
24440;BME280;12618;54.386;18.394;2022-08-06T19:00:51;100538.23;;;16.61;51.26
24440;BME280;12618;54.386;18.394;2022-08-06T19:03:23;100543.94;;;16.55;51.22
24440;BME280;12618;54.386;18.394;2022-08-06T19:05:56;100537.91;;;16.45;51.40
24440;BME280;12618;54.386;18.394;2022-08-06T19:08:27;100543.01;;;16.33;52.66
24440;BME280;12618;54.386;18.394;2022-08-06T19:10:59;100544.66;;;16.20;51.77
24440;BME280;12618;54.386;18.394;2022-08-06T19:13:30;100549.19;;;16.11;51.55
24440;BME280;12618;54.386;18.394;2022-08-06T19:16:01;100547.72;;;16.06;51.58
24440;BME280;12618;54.386;18.394;2022-08-06T19:18:32;100555.84;;;15.95;51.82
24440;BME280;12618;54.386;18.394;2022-08-06T19:21:03;100549.72;;;15.86;52.26
24440;BME280;12618;54.386;18.394;2022-08-06T19:23:36;100552.70;;;15.80;52.28
24440;BME280;12618;54.386;18.394;2022-08-06T19:26:07;100554.39;;;15.74;52.27
24440;BME280;12618;54.386;18.394;2022-08-06T19:28:37;100556.71;;;15.64;52.90
24440;BME280;12618;54.386;18.394;2022-08-06T19:31:09;100554.48;;;15.57;53.34
24440;BME280;12618;54.386;18.394;2022-08-06T19:33:40;100553.52;;;15.58;53.75
24440;BME280;12618;54.386;18.394;2022-08-06T19:36:12;100559.88;;;15.55;53.66
24440;BME280;12618;54.386;18.394;2022-08-06T19:38:42;100562.55;;;15.55;53.92
24440;BME280;12618;54.386;18.394;2022-08-06T19:41:13;100559.15;;;15.52;54.30
24440;BME280;12618;54.386;18.394;2022-08-06T19:43:44;100567.29;;;15.49;55.23
24440;BME280;12618;54.386;18.394;2022-08-06T19:46:15;100564.42;;;15.45;55.20
24440;BME280;12618;54.386;18.394;2022-08-06T19:48:46;100557.86;;;15.43;55.12
24440;BME280;12618;54.386;18.394;2022-08-06T19:51:17;100557.94;;;15.42;55.37
24440;BME280;12618;54.386;18.394;2022-08-06T19:53:48;100559.73;;;15.41;55.26
24440;BME280;12618;54.386;18.394;2022-08-06T19:56:19;100561.53;;;15.41;56.12
24440;BME280;12618;54.386;18.394;2022-08-06T19:58:50;100559.81;;;15.40;55.76
24440;BME280;12618;54.386;18.394;2022-08-06T20:01:21;100562.74;;;15.35;56.34
24440;BME280;12618;54.386;18.394;2022-08-06T20:03:52;100563.76;;;15.33;56.36
24440;BME280;12618;54.386;18.394;2022-08-06T20:06:23;100564.70;;;15.32;56.45
24440;BME280;12618;54.386;18.394;2022-08-06T20:08:54;100565.09;;;15.33;57.30
24440;BME280;12618;54.386;18.394;2022-08-06T20:11:25;100561.02;;;15.25;57.38
24440;BME280;12618;54.386;18.394;2022-08-06T20:14:00;100567.27;;;15.24;57.22
24440;BME280;12618;54.386;18.394;2022-08-06T20:16:31;100565.66;;;15.13;57.02
24440;BME280;12618;54.386;18.394;2022-08-06T20:19:03;100559.50;;;15.04;57.54
24440;BME280;12618;54.386;18.394;2022-08-06T20:21:34;100561.56;;;14.99;57.42
24440;BME280;12618;54.386;18.394;2022-08-06T20:24:05;100557.80;;;14.94;58.07
24440;BME280;12618;54.386;18.394;2022-08-06T20:26:36;100556.16;;;14.92;57.79
24440;BME280;12618;54.386;18.394;2022-08-06T20:29:06;100563.13;;;14.86;58.68
24440;BME280;12618;54.386;18.394;2022-08-06T20:31:38;100557.97;;;14.83;58.99
24440;BME280;12618;54.386;18.394;2022-08-06T20:34:09;100552.44;;;14.79;58.71
24440;BME280;12618;54.386;18.394;2022-08-06T20:36:41;100546.82;;;14.68;58.85
24440;BME280;12618;54.386;18.394;2022-08-06T20:39:12;100561.42;;;14.76;59.43
24440;BME280;12618;54.386;18.394;2022-08-06T20:41:43;100564.01;;;14.78;59.42
24440;BME280;12618;54.386;18.394;2022-08-06T20:44:13;100558.84;;;14.75;60.95
24440;BME280;12618;54.386;18.394;2022-08-06T20:46:44;100556.33;;;14.72;60.09
24440;BME280;12618;54.386;18.394;2022-08-06T20:49:15;100551.95;;;14.71;59.64
24440;BME280;12618;54.386;18.394;2022-08-06T20:51:46;100559.06;;;14.70;59.84
24440;BME280;12618;54.386;18.394;2022-08-06T20:54:17;100559.17;;;14.69;60.12
24440;BME280;12618;54.386;18.394;2022-08-06T20:56:48;100554.01;;;14.66;60.49
24440;BME280;12618;54.386;18.394;2022-08-06T20:59:20;100561.19;;;14.64;60.84
24440;BME280;12618;54.386;18.394;2022-08-06T21:01:51;100553.91;;;14.58;60.70
24440;BME280;12618;54.386;18.394;2022-08-06T21:04:22;100553.16;;;14.56;60.94
24440;BME280;12618;54.386;18.394;2022-08-06T21:06:53;100551.97;;;14.53;60.97
24440;BME280;12618;54.386;18.394;2022-08-06T21:09:24;100558.07;;;14.55;61.27
24440;BME280;12618;54.386;18.394;2022-08-06T21:11:59;100555.02;;;14.54;61.21
24440;BME280;12618;54.386;18.394;2022-08-06T21:14:28;100562.45;;;14.56;61.26
24440;BME280;12618;54.386;18.394;2022-08-06T21:16:58;100560.88;;;14.52;62.03
24440;BME280;12618;54.386;18.394;2022-08-06T21:19:29;100554.70;;;14.43;61.63
24440;BME280;12618;54.386;18.394;2022-08-06T21:22:00;100563.21;;;14.41;62.48
24440;BME280;12618;54.386;18.394;2022-08-06T21:24:33;100558.83;;;14.40;62.75
24440;BME280;12618;54.386;18.394;2022-08-06T21:27:04;100563.32;;;14.30;63.00
24440;BME280;12618;54.386;18.394;2022-08-06T21:29:35;100566.19;;;14.25;62.95
24440;BME280;12618;54.386;18.394;2022-08-06T21:32:06;100563.45;;;14.18;63.02
24440;BME280;12618;54.386;18.394;2022-08-06T21:34:38;100566.64;;;14.16;63.78
24440;BME280;12618;54.386;18.394;2022-08-06T21:37:09;100568.14;;;14.13;63.55
24440;BME280;12618;54.386;18.394;2022-08-06T21:39:46;100565.49;;;14.13;63.82
24440;BME280;12618;54.386;18.394;2022-08-06T21:42:18;100565.49;;;14.13;64.47
24440;BME280;12618;54.386;18.394;2022-08-06T21:44:49;100566.42;;;14.12;63.92
24440;BME280;12618;54.386;18.394;2022-08-06T21:47:22;100562.98;;;14.10;64.35
24440;BME280;12618;54.386;18.394;2022-08-06T21:49:53;100562.33;;;14.05;64.77
24440;BME280;12618;54.386;18.394;2022-08-06T21:52:24;100562.50;;;14.02;64.87
24440;BME280;12618;54.386;18.394;2022-08-06T21:54:55;100566.94;;;14.01;65.58
24440;BME280;12618;54.386;18.394;2022-08-06T21:57:26;100563.57;;;13.98;64.97
24440;BME280;12618;54.386;18.394;2022-08-06T21:59:57;100558.39;;;13.95;65.58
24440;BME280;12618;54.386;18.394;2022-08-06T22:02:30;100566.53;;;13.92;65.45
24440;BME280;12618;54.386;18.394;2022-08-06T22:05:01;100568.22;;;13.93;65.78
24440;BME280;12618;54.386;18.394;2022-08-06T22:07:32;100562.55;;;13.92;65.79
24440;BME280;12618;54.386;18.394;2022-08-06T22:10:03;100563.55;;;13.89;65.88
24440;BME280;12618;54.386;18.394;2022-08-06T22:12:34;100560.03;;;13.89;66.50
24440;BME280;12618;54.386;18.394;2022-08-06T22:15:05;100564.09;;;13.87;66.48
24440;BME280;12618;54.386;18.394;2022-08-06T22:17:36;100561.10;;;13.84;66.97
24440;BME280;12618;54.386;18.394;2022-08-06T22:20:08;100558.75;;;13.78;66.74
24440;BME280;12618;54.386;18.394;2022-08-06T22:22:39;100560.48;;;13.79;66.49
24440;BME280;12618;54.386;18.394;2022-08-06T22:25:10;100560.38;;;13.81;66.25
24440;BME280;12618;54.386;18.394;2022-08-06T22:27:41;100557.43;;;13.78;66.82
24440;BME280;12618;54.386;18.394;2022-08-06T22:30:12;100565.13;;;13.74;68.25
24440;BME280;12618;54.386;18.394;2022-08-06T22:33:13;100564.97;;;13.69;67.83
24440;BME280;12618;54.386;18.394;2022-08-06T22:35:43;100562.52;;;13.64;68.05
24440;BME280;12618;54.386;18.394;2022-08-06T22:38:15;100566.09;;;13.63;68.68
24440;BME280;12618;54.386;18.394;2022-08-06T22:40:47;100567.16;;;13.59;68.53
24440;BME280;12618;54.386;18.394;2022-08-06T22:43:20;100563.64;;;13.59;69.02
24440;BME280;12618;54.386;18.394;2022-08-06T22:45:51;100568.26;;;13.55;69.13
24440;BME280;12618;54.386;18.394;2022-08-06T22:48:22;100569.05;;;13.57;69.51
24440;BME280;12618;54.386;18.394;2022-08-06T22:50:53;100566.93;;;13.55;69.45
24440;BME280;12618;54.386;18.394;2022-08-06T22:53:25;100573.56;;;13.55;69.82
24440;BME280;12618;54.386;18.394;2022-08-06T22:55:56;100570.52;;;13.54;69.15
24440;BME280;12618;54.386;18.394;2022-08-06T22:58:27;100572.90;;;13.50;69.65
24440;BME280;12618;54.386;18.394;2022-08-06T23:00:58;100577.11;;;13.45;69.83
24440;BME280;12618;54.386;18.394;2022-08-06T23:03:29;100575.45;;;13.43;70.01
24440;BME280;12618;54.386;18.394;2022-08-06T23:05:59;100582.87;;;13.45;69.82
24440;BME280;12618;54.386;18.394;2022-08-06T23:08:30;100573.53;;;13.46;71.47
24440;BME280;12618;54.386;18.394;2022-08-06T23:11:01;100564.77;;;13.44;70.63
24440;BME280;12618;54.386;18.394;2022-08-06T23:13:32;100567.09;;;13.42;71.28
24440;BME280;12618;54.386;18.394;2022-08-06T23:16:03;100575.18;;;13.39;72.39
24440;BME280;12618;54.386;18.394;2022-08-06T23:18:34;100566.42;;;13.37;72.03
24440;BME280;12618;54.386;18.394;2022-08-06T23:21:05;100566.99;;;13.35;71.37
24440;BME280;12618;54.386;18.394;2022-08-06T23:23:57;100571.73;;;13.37;71.60
24440;BME280;12618;54.386;18.394;2022-08-06T23:26:33;100567.23;;;13.39;71.70
24440;BME280;12618;54.386;18.394;2022-08-06T23:29:06;100561.92;;;13.39;71.78
24440;BME280;12618;54.386;18.394;2022-08-06T23:31:38;100561.92;;;13.39;71.61
24440;BME280;12618;54.386;18.394;2022-08-06T23:34:09;100569.88;;;13.39;72.92
24440;BME280;12618;54.386;18.394;2022-08-06T23:36:41;100570.04;;;13.36;72.19
24440;BME280;12618;54.386;18.394;2022-08-06T23:39:11;100563.08;;;13.33;72.37
24440;BME280;12618;54.386;18.394;2022-08-06T23:41:43;100567.52;;;13.33;72.31
24440;BME280;12618;54.386;18.394;2022-08-06T23:44:14;100567.13;;;13.32;72.80
24440;BME280;12618;54.386;18.394;2022-08-06T23:46:45;100561.95;;;13.29;72.85
24440;BME280;12618;54.386;18.394;2022-08-06T23:49:16;100568.17;;;13.28;73.04
24440;BME280;12618;54.386;18.394;2022-08-06T23:51:49;100568.17;;;13.28;73.31
24440;BME280;12618;54.386;18.394;2022-08-06T23:54:21;100560.45;;;13.23;73.18
24440;BME280;12618;54.386;18.394;2022-08-06T23:56:55;100556.94;;;13.23;73.47
24440;BME280;12618;54.386;18.394;2022-08-06T23:59:27;100562.70;;;13.22;73.83
